Latest Weather Observations for Kyabram

IDV60801

Issued at 9:31 pm EST Saturday 23 May 2015 (issued every 30 minutes, with the page automatically refreshed every 10 minutes)

About weather observations | Map of weather stations | Latest weather observations for VIC | Other Formats
Station Details ID: 080091 Name: KYABRAM Lat: -36.34 Lon: 145.06 Height: 105.0 m
Data from the previous 72 hours. | See also: Recent months at Kyabram
Date/Time
EST
Temp
°C
App
Temp
°C
Dew
Point
Rel
Hum
%
Delta-T
°C
Wind Press
QNH
hPa
Press
MSL
hPa
Rain
since 9 am
mm
Dir
 
Spd
km/h
Gust
km/h
Spd
kts
Gust
kts
23/09:30pm 5.2 4.1 5.1 99 0.0 CALM 0 0 0 0 - - 0.2
23/09:00pm 4.4 3.1 4.3 99 0.0 CALM 0 0 0 0 - - 0.2
23/08:30pm 5.1 3.9 4.5 96 0.3 CALM 0 0 0 0 - - 0.2
23/08:00pm 5.7 4.7 5.4 98 0.1 CALM 0 0 0 0 - - 0.2
23/07:30pm 5.5 4.1 3.8 89 0.7 CALM 0 0 0 0 - - 0.2
23/07:00pm 6.8 5.6 4.8 87 0.9 CALM 0 0 0 0 - - 0.2
23/06:30pm 7.5 6.3 4.6 82 1.3 CALM 0 0 0 0 - - 0.2
23/06:00pm 8.5 7.2 4.1 74 1.9 CALM 0 0 0 0 - - 0.2
23/05:30pm 10.4 9.1 4.3 66 2.7 CALM 0 0 0 0 - - 0.2
23/05:00pm 12.3 11.1 4.8 60 3.5 CALM 0 0 0 0 - - 0.2
23/04:30pm 14.9 13.7 4.6 50 4.8 CALM 0 0 0 0 - - 0.2
23/04:00pm 15.3 13.7 2.5 42 5.7 CALM 0 0 0 0 - - 0.2
23/03:30pm 15.4 13.6 1.5 39 6.1 CALM 0 0 0 0 - - 0.2
23/03:00pm 15.7 14.2 2.8 42 5.9 CALM 0 0 0 0 - - 0.2
23/02:30pm 15.7 14.5 4.4 47 5.3 CALM 0 0 0 0 - - 0.2
23/02:00pm 15.9 14.8 4.9 48 5.2 CALM 0 0 0 0 - - 0.2
23/01:30pm 15.9 14.8 5.2 49 5.1 CALM 0 0 0 0 - - 0.2
23/01:00pm 15.4 14.3 5.3 51 4.8 CALM 0 0 0 0 - - 0.2
23/12:30pm 14.6 13.4 4.6 51 4.7 CALM 0 0 0 0 - - 0.2
23/12:00pm 14.3 13.1 4.6 52 4.5 CALM 0 0 0 0 - - 0.0
23/11:30am 13.4 11.0 5.1 57 3.9 SE 7 11 4 6 - - 0.0
23/11:00am 12.6 9.9 5.5 62 3.3 S 9 13 5 7 - - 0.0
23/10:30am 11.9 9.2 5.8 66 2.9 S 9 13 5 7 - - 0.0
23/10:00am 10.7 7.7 5.9 72 2.2 S 11 17 6 9 - - 0.0
23/09:30am 9.6 6.7 6.7 82 1.4 S 11 13 6 7 - - 0.0
23/09:00am 8.5 6.7 7.1 91 0.7 S 6 9 3 5 - - 0.0
23/08:30am 6.7 4.6 6.7 100 0.0 S 7 13 4 7 - - 0.0
23/08:00am 4.2 1.6 4.2 100 0.0 S 7 11 4 6 - - 0.0
23/07:30am 2.3 0.7 2.3 100 0.0 CALM 0 0 0 0 - - 0.0
23/07:00am 1.8 0.1 1.7 99 0.0 CALM 0 0 0 0 - - 0.0
23/06:30am 2.5 0.9 2.4 99 0.0 CALM 0 0 0 0 - - 0.0
23/06:00am 2.5 0.9 2.4 99 0.0 CALM 0 6 0 3 - - 0.0
23/05:30am 3.2 0.6 3.1 99 0.0 SSW 6 7 3 4 - - 0.0
23/05:00am 4.1 1.5 4.0 99 0.0 S 7 11 4 6 - - 0.0
23/04:30am 3.6 1.1 3.5 99 0.0 S 6 9 3 5 - - 0.0
23/04:00am 3.5 1.9 2.5 93 0.4 CALM 0 0 0 0 - - 0.0
23/03:30am 5.8 3.4 4.3 90 0.6 S 6 9 3 5 - - 0.0
23/03:00am 6.5 4.0 4.8 89 0.7 SSE 7 11 4 6 - - 0.0
23/02:30am 6.9 4.0 4.7 86 1.0 S 9 13 5 7 - - 0.0
23/02:00am 6.6 4.7 4.9 89 0.7 S 4 11 2 6 - - 0.0
23/01:30am 6.4 3.9 5.0 91 0.6 S 7 13 4 7 - - 0.0
23/01:00am 5.6 3.3 4.6 93 0.4 S 6 11 3 6 - - 0.0
23/12:30am 6.2 3.6 4.2 87 0.9 SSW 7 9 4 5 - - 0.0
23/12:00am 6.9 4.4 4.9 87 0.9 S 7 13 4 7 - - 0.0
 
Date/Time
EST
Temp
°C
App
Temp
°C
Dew
Point
Rel
Hum
%
Delta-T
°C
Wind Press
QNH
hPa
Press
MSL
hPa
Rain
since 9 am
mm
Dir
 
Spd
km/h
Gust
km/h
Spd
kts
Gust
kts
22/11:30pm 6.9 4.3 4.4 84 1.1 SW 7 11 4 6 - - 0.0
22/11:00pm 6.7 4.1 4.4 85 1.0 S 7 11 4 6 - - 0.0
22/10:30pm 7.1 4.6 4.8 85 1.0 SSW 7 11 4 6 - - 0.0
22/10:00pm 7.5 4.7 5.0 84 1.1 S 9 15 5 8 - - 0.0
22/09:30pm 8.3 5.1 5.2 81 1.4 S 11 15 6 8 - - 0.0
22/09:00pm 8.0 5.7 5.5 84 1.1 SSW 7 13 4 7 - - 0.0
22/08:30pm 8.4 5.3 5.5 82 1.3 SSW 11 13 6 7 - - 0.0
22/08:00pm 8.5 7.1 5.4 81 1.4 SSW 2 9 1 5 - - 0.0
22/07:30pm 9.3 6.3 6.0 80 1.5 SSW 11 13 6 7 - - 0.0
22/07:00pm 9.7 7.1 6.1 78 1.7 SW 9 13 5 7 - - 0.0
22/06:30pm 10.4 7.3 5.6 72 2.2 S 11 17 6 9 - - 0.0
22/06:00pm 11.3 7.8 5.4 67 2.7 S 13 20 7 11 - - 0.0
22/05:30pm 12.1 8.1 5.0 62 3.3 S 15 26 8 14 - - 0.0
22/05:00pm 12.9 9.1 6.0 63 3.3 SSW 15 22 8 12 - - 0.0
22/04:30pm 14.1 10.4 6.2 59 3.8 SSW 15 24 8 13 - - 0.0
22/04:00pm 15.0 10.5 6.3 56 4.2 SSW 19 32 10 17 - - 0.0
22/03:30pm 15.9 12.0 5.2 49 5.1 S 15 24 8 13 - - 0.0
22/03:00pm 16.6 12.8 5.6 48 5.3 S 15 28 8 15 - - 0.0
22/02:30pm 16.5 12.2 5.2 47 5.4 S 17 33 9 18 - - 0.0
22/02:00pm 16.4 11.6 4.8 46 5.5 S 19 28 10 15 - - 0.0
22/01:30pm 16.5 11.7 4.9 46 5.5 S 19 33 10 18 - - 0.0
22/01:00pm 16.4 11.8 5.4 48 5.3 S 19 39 10 21 - - 0.0
22/12:30pm 15.9 10.7 5.5 50 5.0 S 22 39 12 21 - - 0.0
22/12:00pm 15.5 10.7 4.5 48 5.2 S 19 33 10 18 - - 0.0
22/11:30am 15.3 10.7 5.5 52 4.7 S 19 35 10 19 - - 0.0
22/11:00am 14.6 10.4 5.9 56 4.2 S 17 32 9 17 - - 0.0
22/10:30am 14.1 9.6 6.0 58 3.9 S 19 35 10 19 - - 0.0
22/10:00am 13.3 8.8 7.1 66 3.0 S 20 35 11 19 - - 0.0
22/09:30am 12.6 8.3 7.1 69 2.7 S 19 28 10 15 - - 0.0
22/09:00am 11.9 7.7 7.4 74 2.2 S 19 30 10 16 - - 0.0
22/08:30am 11.2 7.3 7.3 77 1.9 S 17 30 9 16 - - 0.0
22/08:00am 10.3 7.6 7.4 82 1.4 S 11 17 6 9 - - 0.0
22/07:30am 9.6 6.9 7.5 87 1.0 S 11 19 6 10 - - 0.0
22/07:00am 9.2 6.6 7.8 91 0.7 S 11 15 6 8 - - 0.0
22/06:30am 9.6 6.7 8.0 90 0.8 S 13 22 7 12 - - 0.0
22/06:00am 9.5 7.0 8.4 93 0.5 S 11 20 6 11 - - 0.0
22/05:30am 9.5 7.0 8.3 92 0.6 S 11 19 6 10 - - 0.0
22/05:00am 9.8 7.0 8.4 91 0.7 S 13 19 7 10 - - 0.0
22/04:30am 10.1 7.7 8.5 90 0.8 S 11 17 6 9 - - 0.0
22/04:00am 10.6 7.8 8.5 87 1.0 S 13 22 7 12 - - 0.0
22/03:30am 11.0 8.3 8.9 87 1.0 S 13 20 7 11 - - 0.0
22/03:00am 11.1 8.1 9.2 88 1.0 S 15 24 8 13 - - 0.0
22/02:30am 10.9 8.3 9.5 91 0.7 SSW 13 22 7 12 - - 0.0
22/02:00am 11.1 9.0 9.7 91 0.7 SSW 11 19 6 10 - - 0.0
22/01:30am 10.9 8.8 9.8 93 0.6 SSW 11 17 6 9 - - 0.0
22/01:00am 10.4 8.4 10.2 99 0.1 S 11 19 6 10 - - 0.0
22/12:30am 8.4 6.7 8.4 100 0.0 S 7 13 4 7 - - 0.0
22/12:00am 7.6 5.3 7.5 99 0.0 SSW 9 11 5 6 - - 0.0
 
Date/Time
EST
Temp
°C
App
Temp
°C
Dew
Point
Rel
Hum
%
Delta-T
°C
Wind Press
QNH
hPa
Press
MSL
hPa
Rain
since 9 am
mm
Dir
 
Spd
km/h
Gust
km/h
Spd
kts
Gust
kts
21/11:30pm 7.8 5.9 7.7 99 0.0 SSW 7 11 4 6 - - 0.0
21/11:00pm 8.0 5.8 7.9 99 0.0 SW 9 13 5 7 - - 0.0
21/10:30pm 8.2 6.4 8.1 99 0.0 SW 7 13 4 7 - - 0.0
21/10:00pm 8.9 6.4 8.3 96 0.3 SSW 11 15 6 8 - - 0.0
21/09:30pm 9.0 6.5 8.1 94 0.4 SW 11 15 6 8 - - 0.0
21/09:00pm 9.4 6.9 8.0 91 0.7 SSW 11 17 6 9 - - 0.0
21/08:30pm 9.8 6.5 7.9 88 0.9 SSW 15 19 8 10 - - 0.0
21/08:00pm 10.2 6.5 8.1 87 1.0 SSW 17 22 9 12 - - 0.0
21/07:30pm 10.2 6.9 8.1 87 1.0 SSW 15 22 8 12 - - 0.0
21/07:00pm 10.2 7.2 7.8 85 1.2 SSW 13 19 7 10 - - 0.0
21/06:30pm 10.1 7.8 7.5 84 1.2 SW 9 15 5 8 - - 0.0
21/06:00pm 11.0 8.0 7.7 80 1.6 SSW 13 20 7 11 - - 0.0
21/05:30pm 11.2 8.6 7.7 79 1.7 SSW 11 17 6 9 - - 0.0
21/05:00pm 12.0 8.2 7.7 75 2.1 SSW 17 26 9 14 - - 0.0
21/04:30pm 13.2 9.1 7.9 70 2.6 SSW 19 26 10 14 - - 0.0
21/04:00pm 13.7 9.9 7.7 67 3.0 S 17 24 9 13 - - 0.0
21/03:30pm 14.3 11.0 8.0 66 3.2 S 15 24 8 13 - - 0.0
21/03:00pm 14.8 11.7 8.7 67 3.1 SSW 15 22 8 12 - - 0.0
21/02:30pm 14.3 11.1 8.5 68 2.9 S 15 26 8 14 - - 0.0
21/02:00pm 15.3 11.7 8.3 63 3.5 S 17 28 9 15 - - 0.0
21/01:30pm 14.9 11.3 8.4 65 3.3 S 17 28 9 15 - - 0.0
21/01:00pm 14.3 11.1 8.3 67 3.0 S 15 26 8 14 - - 0.0
21/12:30pm 14.3 11.0 8.0 66 3.2 S 15 24 8 13 - - 0.0
21/12:00pm 13.8 10.2 8.4 70 2.7 S 17 32 9 17 - - 0.0
21/11:30am 14.2 10.3 8.6 69 2.8 S 19 32 10 17 - - 0.0
21/11:00am 13.1 9.5 8.2 72 2.4 S 17 28 9 15 - - 0.0
21/10:30am 12.2 8.9 8.1 76 2.0 S 15 28 8 15 - - 0.0
21/10:00am 11.9 8.3 8.4 79 1.7 S 17 28 9 15 - - 0.0
21/09:30am 12.3 9.9 10.0 86 1.2 S 13 22 7 12 - - 0.0
21/09:00am 10.7 7.7 9.1 90 0.8 SSW 15 22 8 12 - - 0.2
21/08:30am 9.6 7.2 8.8 95 0.4 SSW 11 17 6 9 - - 0.2
21/08:00am 9.3 6.9 8.8 97 0.2 SSW 11 15 6 8 - - 0.2
21/07:30am 8.7 6.6 8.4 98 0.1 SSW 9 13 5 7 - - 0.2
21/07:00am 8.5 6.0 8.1 97 0.2 SSW 11 15 6 8 - - 0.2
21/06:30am 8.7 6.6 8.1 96 0.3 SSW 9 13 5 7 - - 0.2
21/06:00am 8.9 6.4 8.1 95 0.4 SSW 11 15 6 8 - - 0.2
21/05:30am 8.7 6.9 8.1 96 0.3 SW 7 11 4 6 - - 0.2
21/05:00am 9.0 6.9 8.1 94 0.4 SSW 9 15 5 8 - - 0.2
21/04:30am 9.6 6.7 8.2 91 0.7 SSW 13 20 7 11 - - 0.2
21/04:00am 9.8 6.6 8.4 91 0.7 SSW 15 22 8 12 - - 0.2
21/03:30am 10.0 7.3 8.9 93 0.5 SSW 13 20 7 11 - - 0.2
21/03:00am 10.3 7.7 9.5 95 0.4 SSW 13 20 7 11 - - 0.2
21/02:30am 10.1 8.4 9.9 99 0.1 SSW 9 11 5 6 - - 0.2
21/02:00am 10.2 8.5 10.0 99 0.1 SSW 9 13 5 7 - - 0.2
21/01:30am 10.3 9.0 10.0 98 0.2 S 7 11 4 6 - - 0.2
21/01:00am 10.5 8.8 9.9 96 0.3 S 9 15 5 8 - - 0.2
21/12:30am 10.2 9.9 10.0 99 0.1 WSW 2 9 1 5 - - 0.2
21/12:00am 9.9 8.8 9.8 99 0.1 WSW 6 9 3 5 - - 0.2
 
Date/Time
EST
Temp
°C
App
Temp
°C
Dew
Point
Rel
Hum
%
Delta-T
°C
Wind Press
QNH
hPa
Press
MSL
hPa
Rain
since 9 am
mm
Dir
 
Spd
km/h
Gust
km/h
Spd
kts
Gust
kts
20/11:30pm 9.9 9.8 9.6 98 0.2 CALM 0 6 0 3 - - 0.2
20/11:00pm 10.0 8.7 9.9 99 0.1 WSW 7 11 4 6 - - 0.2
20/10:30pm 9.9 8.7 9.6 98 0.2 WSW 6 9 3 5 - - 0.2
20/10:00pm 10.2 8.8 9.6 96 0.3 W 7 11 4 6 - - 0.2

Other Formats:

Comma delimited format used in spreadsheet applications
http://www.bom.gov.au/fwo/IDV60801/IDV60801.95833.axf

JavaScript Object Notation format (JSON) in row-major order
http://www.bom.gov.au/fwo/IDV60801/IDV60801.95833.json